Tiempo atmosférico en la estación meteorológica de Villafáfila, Zamora (690 m.)



Fecha
DESCASC
Temp. máxima en grados centígrados (hora)
DESCASC
Temp. mínima en grados centígrados (hora)
DESCASC
Temp. media en grados centígrados
DESCASC
Racha de viento máxima en m/sg (hora)
DESCASC
Velocidad máxima media en intervalos de 10 minutos(hora)
DESCASC
Precipitaciones diarias en mm
DESCASC
Precipitaciones de 00:00 a 06:00 en mm
DESCASC
Precipitaciones de 06:00 a 12:00 en mm
DESCASC
Precipitaciones de 12:00 a 18:00 en mm
DESCASC
Precipitaciones de 18:00 a 24:00 en mm
DESCASC
24-09-2020 19.8 (15:50) 10.9 (07:30) 15.3 18.33 (19:50) 10.28 (15:20) 0 0 0 0 0
23-09-2020 21.1 (15:20) 12.7 (00:00) 16.9 11.11 (18:10) 7.78 (18:20) 0 0 0 0 0
22-09-2020 22.2 (17:30) 11.3 (00:00) 16.8 9.17 (18:50) 6.11 (18:50) 0 0 0 0 0
21-09-2020 22.2 (16:30) 12.7 (00:00) 17.5 6.94 (17:50) 3.33 (22:10) 0.2 0 0 0.2 0
20-09-2020 19.5 (14:40) 15.1 (00:00) 17.3 8.89 (12:50) 5.83 (13:30) 7.4 1 1.6 4.8 0
19-09-2020 20.4 (18:30) 13.7 (00:00) 17 11.94 (15:40) 8.33 (15:40) 12.8 0.4 12.2 0.2 0
18-09-2020 23.4 (16:00) 13.8 (00:00) 18.6 16.67 (00:10) 8.61 (19:50) 14 4.4 0.4 0 9.2
17-09-2020 27.6 (16:20) 17 (00:00) 22.3 13.33 (19:20) 9.17 (19:20) 1.2 0.2 0.4 0 0.6
16-09-2020 29.2 (16:30) 9.1 (08:00) 19.2 9.17 (15:10) 3.89 (23:50) 0 0 0 0 0
15-09-2020 27.6 (16:30) 13.4 (00:00) 20.5 13.89 (16:10) 4.72 (00:10) 0 0 0 0 0
14-09-2020 29.3 (17:00) 14.5 (00:00) 21.9 10.28 (23:59) 6.67 (19:10) 0 0 0 0 0
13-09-2020 33.7 (17:50) 11.4 (00:00) 22.6 6.11 (00:50) 4.17 (05:50) 0 0 0 0 0
12-09-2020 31.8 (17:00) 12.2 (08:10) 22 8.89 (13:00) 4.17 (10:50) 0 0 0 0 0
11-09-2020 30.7 (17:50) 11.7 (00:00) 21.2 6.67 (01:40) 4.72 (01:40) 0 0 0 0 0
10-09-2020 29.8 (16:40) 11.1 (00:00) 20.4 7.22 (08:50) 4.72 (00:30) 0 0 0 0 0
09-09-2020 29.6 (17:10) 8.3 (08:10) 19 9.44 (17:10) 5 (01:20) 0 0 0 0 0
08-09-2020 27.2 (17:30) 8.6 (00:00) 17.9 12.5 (01:50) 7.78 (10:20) 0 0 0 0 0
07-09-2020 24.3 (17:10) 8.3 (06:40) 16.3 17.22 (12:50) 8.33 (12:10) 0 0 0 0 0
06-09-2020 28 (17:10) 12.9 (00:00) 20.4 16.67 (21:50) 10.83 (21:30) 0 0 0 0 0
05-09-2020 32.6 (16:00) 13.8 (00:00) 23.2 17.5 (22:50) 10.83 (22:50) 0 0 0 0 0
04-09-2020 33.4 (18:20) 10.5 (00:00) 22 7.78 (16:50) 4.17 (19:50) 0 0 0 0 0
03-09-2020 30.9 (17:50) 9.7 (00:00) 20.3 5.28 (05:50) 4.17 (01:10) 0 0 0 0 0
02-09-2020 28 (18:40) 9.9 (00:00) 18.9 10 (10:20) 6.67 (00:10) 0 0 0 0 0
01-09-2020 27.8 (17:50) 11.8 (00:00) 19.8 16.39 (22:50) 8.89 (23:00) 0 0 0 0 0
31-08-2020 24.6 (18:50) 5.9 (00:00) 15.3 8.06 (00:20) 6.11 (00:30) 0 0 0 0 0
30-08-2020 21.4 (17:50) 5.1 (00:00) 13.2 9.44 (22:30) 5.56 (22:40) 0 0 0 0 0
29-08-2020 21.9 (16:30) 7.6 (00:00) 14.7 13.33 (17:50) 9.17 (19:00) 0 0 0 0 0
28-08-2020 27 (16:00) 14.1 (00:00) 20.6 13.33 (17:50) 9.72 (18:50) 0 0 0 0 0
27-08-2020 34.3 (18:00) 15.1 (00:00) 24.7 10.28 (17:50) 7.22 (20:00) 0 0 0 0 0
26-08-2020 34.3 (18:40) 13.9 (00:00) 24.1 7.78 (19:20) 4.17 (19:20) 0 0 0 0 0

Gráficas

Temp. máximas Temp. mínimas Temp. medias Precipitaciones Rachas de viento máximas Velocidades máximas media en intervalos de 10 minutos

Datos horarios

Fecha y hora oficial Temperatura (ºC) Velocidad del viento (km/h) Dirección del viento Racha (km/h) Dirección de racha Precipitación (mm) Presión (hPa) Tendencia (hPa) Humedad (%)
2020-09-24 23:00:00 12.7 24 Oeste 39 Oeste 0 -- -- 69
2020-09-24 22:00:00 13.2 20 Sudoeste 32 Oeste 0 -- -- 65
2020-09-24 21:00:00 13.9 22 Sudoeste 42 Oeste 0 -- -- 62
2020-09-24 20:00:00 15.4 31 Oeste 66 Oeste 0 -- -- 59
2020-09-24 19:00:00 18.2 37 Oeste 51 Oeste 0 -- -- 48
2020-09-24 18:00:00 19.2 31 Oeste 54 Oeste 0 -- -- 43
2020-09-24 17:00:00 19.6 35 Oeste 54 Oeste 0 -- -- 41
2020-09-24 16:00:00 19.6 33 Oeste 53 Oeste 0 -- -- 47
2020-09-24 15:00:00 19 30 Sudoeste 50 Oeste 0 -- -- 49
2020-09-24 14:00:00 17.4 27 Sudoeste 46 Sudoeste 0 -- -- 63
2020-09-24 13:00:00 16.7 25 Sudoeste 37 Oeste 0 -- -- 67
2020-09-24 12:00:00 15.7 23 Sudoeste 38 Sudoeste 0 -- -- 72
2020-09-24 11:00:00 14.5 21 Sudoeste 35 Sudoeste 0 -- -- 77
2020-09-24 10:00:00 12.8 10 Sudoeste 21 Sudoeste 0 -- -- 87
2020-09-24 09:00:00 11.3 12 Sudoeste 19 Sudoeste 0 -- -- 90
2020-09-24 08:00:00 11.1 10 Sudoeste 15 Sudoeste 0 -- -- 89
2020-09-24 07:00:00 11 8 Sudoeste 15 Sudoeste 0 -- -- 89
2020-09-24 06:00:00 11.4 7 Sudoeste 15 Sudoeste 0 -- -- 88
2020-09-24 05:00:00 12.1 9 Sudoeste 15 Sudoeste 0 -- -- 86
2020-09-24 04:00:00 12.4 8 Sudoeste 17 Sudoeste 0 -- -- 86
2020-09-24 03:00:00 12.9 6 Sudoeste 11 Sur 0 -- -- 84
2020-09-24 02:00:00 13.6 8 Sur 20 Sudoeste 0 -- -- 83
2020-09-24 01:00:00 14.3 11 Sudoeste 18 Sudoeste 0 -- -- 80
2020-09-24 00:00:00 15.2 3 Noroeste 22 Oeste 0 -- -- 76
2020-09-23 23:00:00 16.3 18 Oeste 27 Oeste 0 -- -- 71
2020-09-23 22:00:00 16.6 15 Oeste 23 Oeste 0 -- -- 71
2020-09-23 21:00:00 16.8 11 Sudoeste 24 Sudoeste 0 -- -- 71
2020-09-23 20:00:00 18.4 15 Sudoeste 35 Sudoeste 0 -- -- 64
2020-09-23 19:00:00 19.7 18 Sudoeste 40 Sudoeste 0 -- -- 58
2020-09-23 18:00:00 20.2 22 Oeste 36 Oeste 0 -- -- 60
2020-09-23 17:00:00 19.8 22 Sudoeste 37 Sudoeste 0 -- -- 68
2020-09-23 16:00:00 18.8 27 Sudoeste 37 Sudoeste 0 -- -- 69
2020-09-23 15:00:00 20.5 26 Sudoeste 39 Sudoeste 0 -- -- 68
2020-09-23 14:00:00 20.5 19 Sudoeste 34 Sudoeste 0 -- -- 63
2020-09-23 13:00:00 19.6 20 Sudoeste 35 Sudoeste 0 -- -- 69
2020-09-23 12:00:00 18.9 23 Sudoeste 35 Sudoeste 0 -- -- 68
2020-09-23 11:00:00 17.8 20 Sudoeste 30 Sudoeste 0 -- -- 77
2020-09-23 10:00:00 15.5 16 Sudoeste 22 Sudoeste 0 -- -- 87
2020-09-23 09:00:00 14.3 11 Sur 18 Sur 0 -- -- 93
2020-09-23 08:00:00 13.7 12 Sur 18 Sur 0 -- -- 93
2020-09-23 07:00:00 13.1 5 Sur 10 Sudeste 0 -- -- 93
2020-09-23 06:00:00 13.2 5 Sur 12 Sur 0 -- -- 90
2020-09-23 05:00:00 14.1 5 Sur 11 Sur 0 -- -- 88
2020-09-23 04:00:00 14.8 5 Sur 13 Sur 0 -- -- 88
2020-09-23 03:00:00 15.2 2 Sudoeste 13 Sur 0 -- -- 83
2020-09-23 02:00:00 16 4 Sur 14 Sudoeste 0 -- -- 82
2020-09-23 01:00:00 16.5 9 Sudoeste 14 Sudoeste 0 -- -- 79
2020-09-23 00:00:00 16.9 9 Sudoeste 13 Sudoeste 0 -- -- 76
2020-09-22 23:00:00 17.6 5 Oeste 13 Sudoeste 0 -- -- 72
2020-09-22 22:00:00 18.4 12 Sudoeste 25 Sudoeste 0 -- -- 66
2020-09-22 21:00:00 18.8 15 Sudoeste 25 Sudoeste 0 -- -- 62
2020-09-22 20:00:00 19.4 14 Sudoeste 32 Sudoeste 0 -- -- 56
2020-09-22 19:00:00 20.8 18 Sudoeste 33 Sudoeste 0 -- -- 51
2020-09-22 18:00:00 22 17 Sudoeste 28 Sudoeste 0 -- -- 46
2020-09-22 17:00:00 21.9 13 Sudoeste 28 Sudoeste 0 -- -- 48
2020-09-22 16:00:00 21.9 13 Sur 23 Sur 0 -- -- 50
2020-09-22 15:00:00 20.5 11 Sur 22 Sur 0 -- -- 55
2020-09-22 14:00:00 19.6 14 Sur 23 Sur 0 -- -- 63
2020-09-22 13:00:00 18.4 10 Sur 14 Sur 0 -- -- 67
2020-09-22 12:00:00 16.7 6 Noroeste 12 Sudoeste 0 -- -- 74
2020-09-22 11:00:00 14.9 6 Noroeste 16 Noroeste 0 -- -- 83
2020-09-22 10:00:00 13.9 10 Noroeste 16 Noroeste 0 -- -- 89
2020-09-22 09:00:00 12.8 10 Noroeste 14 Noroeste 0 -- -- 92
2020-09-22 08:00:00 12.7 8 Noroeste 12 Noroeste 0 -- -- 93
2020-09-22 07:00:00 12.8 6 Noroeste 10 Noroeste 0 -- -- 94
2020-09-22 06:00:00 12.7 4 Noroeste 8 Noroeste 0 -- -- 94
2020-09-22 05:00:00 11.9 3 Oeste 8 Noroeste 0 -- -- 94
2020-09-22 04:00:00 11.5 8 Noroeste 10 Noroeste 0 -- -- 93
2020-09-22 03:00:00 11.9 9 Noroeste 13 Noroeste 0 -- -- 93
2020-09-22 02:00:00 12.5 10 Noroeste 15 Noroeste 0 -- -- 91
2020-09-22 01:00:00 13.6 10 Oeste 15 Noroeste 0 -- -- 89
2020-09-22 00:00:00 14.4 10 Oeste 11 Oeste 0 -- -- 85
2020-09-21 23:00:00 15.6 4 Noroeste 16 Noroeste 0 -- -- 83
2020-09-21 22:00:00 15.8 9 Noroeste 15 Oeste 0 -- -- 77
2020-09-21 21:00:00 17.5 2 Sudoeste 8 Sur 0 -- -- 68
2020-09-21 20:00:00 20 6 Sudeste 12 Sur 0 -- -- 54
2020-09-21 19:00:00 21.8 9 Sur 17 Sudeste 0 -- -- 47
2020-09-21 18:00:00 22 9 Sudeste 25 Sudeste 0 -- -- 49
2020-09-21 17:00:00 22.1 6 Sur 16 Sudeste 0 -- -- 52
2020-09-21 16:00:00 20.9 7 Este 19 Este 0 -- -- 60
2020-09-21 15:00:00 20.6 7 Sur 18 Sudeste 0.2 -- -- 66
2020-09-21 14:00:00 18.3 3 Oeste 16 Sudeste 0 -- -- 72
2020-09-21 13:00:00 16.8 6 Sur 12 Sudoeste 0 -- -- 82
2020-09-21 12:00:00 16.1 5 Sur 9 Sur 0 -- -- 90
2020-09-21 11:00:00 14.5 3 Sudeste 6 Este 0 -- -- 95
2020-09-21 10:00:00 13.9 3 Este 6 Oeste 0 -- -- 96
2020-09-21 09:00:00 13.3 2 Noroeste 5 Sur 0 -- -- 96
2020-09-21 08:00:00 13 0 Calma 6 Norte 0 -- -- 96
2020-09-21 07:00:00 12.9 3 Noroeste 6 Noroeste 0 -- -- 96
2020-09-21 06:00:00 13.2 3 Noroeste 5 Noroeste 0 -- -- 95
2020-09-21 05:00:00 13.5 0 Calma 5 Noroeste 0 -- -- 95
2020-09-21 04:00:00 13.8 5 Norte 9 Noroeste 0 -- -- 95
2020-09-21 03:00:00 12.8 0 Calma 12 Sudoeste 0 -- -- 92
2020-09-21 02:00:00 13.6 5 Sudoeste 9 Sur 0 -- -- 92
2020-09-21 01:00:00 14.1 0 Calma 8 Sudoeste 0 -- -- 91
2020-09-21 00:00:00 15.1 5 Noroeste 8 Sudoeste 0 -- -- 90
2020-09-20 23:00:00 15.1 0 Calma 5 Sudoeste 0 -- -- 90
2020-09-20 22:00:00 15.7 0 Calma 9 Este 0 -- -- 88
2020-09-20 21:00:00 16.8 3 Norte 9 Noroeste 0 -- -- 83
2020-09-20 20:00:00 18.1 7 Noroeste 21 Oeste 0 -- -- 77
2020-09-20 19:00:00 19.3 17 Oeste 22 Oeste 0 -- -- 73
2020-09-20 18:00:00 18 13 Oeste 21 Sudoeste 0 -- -- 86
2020-09-20 17:00:00 17 13 Oeste 22 Oeste 0.8 -- -- 90
2020-09-20 16:00:00 17.6 14 Oeste 22 Noroeste 3.2 -- -- 88
2020-09-20 15:00:00 17.9 14 Noroeste 27 Noroeste 0.2 -- -- 83
2020-09-20 14:00:00 18 14 Sudoeste 31 Sudoeste 0.6 -- -- 85
2020-09-20 13:00:00 17.5 15 Sudoeste 32 Sudoeste 0 -- -- 84
2020-09-20 12:00:00 17 15 Sudoeste 23 Sudoeste 0.2 -- -- 88
2020-09-20 11:00:00 16.2 15 Sudoeste 22 Sudoeste 0.2 -- -- 91
2020-09-20 10:00:00 15.9 14 Sudoeste 22 Sudoeste 0 -- -- 91
2020-09-20 09:00:00 15.5 9 Sudoeste 14 Sur 0 -- -- 93
2020-09-20 08:00:00 15.3 8 Sudoeste 18 Sur 0.2 -- -- 94
2020-09-20 07:00:00 15.4 9 Sur 14 Sur 1 -- -- 94
2020-09-20 06:00:00 15.4 7 Sudoeste 14 Sudoeste 0.8 -- -- 93
2020-09-20 05:00:00 15.4 6 Sur 15 Sur 0 -- -- 92
2020-09-20 04:00:00 15.5 9 Sur 14 Sur 0 -- -- 92
2020-09-20 03:00:00 15.5 6 Sudoeste 15 Sudoeste 0.2 -- -- 91
2020-09-20 02:00:00 15.5 8 Sudoeste 13 Sudoeste 0 -- -- 90
2020-09-20 01:00:00 15.5 7 Sudoeste 12 Sudoeste 0 -- -- 88
2020-09-20 00:00:00 15.3 8 Sudoeste 15 Sudoeste 0 -- -- 87
2020-09-19 23:00:00 15.3 9 Sudoeste 20 Sudoeste 0 -- -- 85
2020-09-19 22:00:00 15.7 13 Sudoeste 29 Sudoeste 0 -- -- 81
2020-09-19 21:00:00 16.4 14 Sudoeste 29 Sudoeste 0 -- -- 77
2020-09-19 20:00:00 17.5 23 Sudoeste 39 Sudoeste 0 -- -- 69
2020-09-19 19:00:00 19.9 17 Sudoeste 32 Oeste 0 -- -- 64
2020-09-19 18:00:00 19.4 24 Oeste 37 Oeste 0 -- -- 65
2020-09-19 17:00:00 18.4 22 Oeste 43 Sudoeste 0 -- -- 70
2020-09-19 16:00:00 20.1 27 Sudoeste 43 Sudoeste 0 -- -- 65
2020-09-19 15:00:00 18.9 25 Sudoeste 40 Sudoeste 0 -- -- 71
2020-09-19 14:00:00 18.5 23 Sudoeste 35 Sudoeste 0.2 -- -- 75
2020-09-19 13:00:00 16.7 12 Sudoeste 28 Sudoeste 0 -- -- 83
2020-09-19 12:00:00 15.3 11 Sudoeste 18 Sudoeste 0.2 -- -- 91
2020-09-19 11:00:00 14.4 12 Oeste 20 Noroeste 1.2 -- -- 94
2020-09-19 10:00:00 14 13 Oeste 20 Oeste 4.8 -- -- 95
2020-09-19 09:00:00 13.9 14 Noroeste 18 Noroeste 2.8 -- -- 94
2020-09-19 08:00:00 13.8 10 Nordeste 15 Nordeste 2.4 -- -- 94
2020-09-19 07:00:00 14 10 Este 21 Este 0.8 -- -- 93
2020-09-19 06:00:00 14.1 10 Este 17 Este 0 -- -- 92
2020-09-19 05:00:00 14.1 11 Este 13 Este 0.2 -- -- 92
2020-09-19 04:00:00 14 9 Este 19 Sudeste 0.2 -- -- 91
2020-09-19 03:00:00 13.9 13 Sudeste 21 Sudeste 0 -- -- 90
2020-09-19 02:00:00 14 16 Sudeste 26 Sudeste 0 -- -- 89
2020-09-19 01:00:00 13.8 11 Este 20 Este 0 -- -- 88
2020-09-19 00:00:00 13.8 10 Nordeste 15 Nordeste 0 -- -- 88
2020-09-18 23:00:00 14.6 4 Sudeste 11 Sudeste 0 -- -- 87
2020-09-18 22:00:00 14.4 5 Este 13 Sudeste 0 -- -- 89
2020-09-18 21:00:00 14.4 9 Este 35 Sudeste 1.4 -- -- 87
2020-09-18 20:00:00 14.7 29 Sudeste 50 Sur 7.8 -- -- 87
2020-09-18 19:00:00 21.1 15 Sudeste 32 Sudeste 0 -- -- 51
2020-09-18 18:00:00 22.8 22 Sudeste 35 Sur 0 -- -- 45
2020-09-18 17:00:00 22.6 9 Sur 30 Sudeste 0 -- -- 47
2020-09-18 16:00:00 23.4 17 Sudeste 29 Sudeste 0 -- -- 47
2020-09-18 15:00:00 23.2 15 Sudeste 27 Sur 0 -- -- 49
2020-09-18 14:00:00 22 15 Sur 27 Sur 0 -- -- 51
2020-09-18 13:00:00 21 14 Sur 28 Sur 0 -- -- 60
2020-09-18 12:00:00 19.5 19 Sur 35 Sudeste 0 -- -- 71
2020-09-18 11:00:00 17.6 25 Sudeste 34 Sudeste 0 -- -- 80
2020-09-18 10:00:00 15.3 17 Sur 24 Sudeste 0 -- -- 91
2020-09-18 09:00:00 14 6 Sur 17 Sudeste 0 -- -- 88
2020-09-18 08:00:00 14.4 15 Sudeste 31 Sudeste 0 -- -- 88
2020-09-18 07:00:00 15.6 15 Sudeste 21 Sudeste 0.4 -- -- 92
2020-09-18 06:00:00 15.7 16 Sudeste 23 Sudeste 2 -- -- 91
2020-09-18 05:00:00 15.8 13 Este 17 Este 0 -- -- 90
2020-09-18 04:00:00 15.4 8 Nordeste 13 Nordeste 0 -- -- 89
2020-09-18 03:00:00 15.8 6 Sur 20 Sur 0 -- -- 86
2020-09-18 02:00:00 15.1 6 Sudeste 12 Sudeste 0 -- -- 88
2020-09-18 01:00:00 15 9 Sur 60 Sur 2.4 -- -- 87
2020-09-18 00:00:00 18.9 12 Sur 19 Sur 0 -- -- 68
2020-09-17 23:00:00 19.3 10 Sudeste 12 Sudeste 0.2 -- -- 72
2020-09-17 22:00:00 21.1 6 Sur 21 Sudoeste 0 -- -- 62
2020-09-17 21:00:00 22.1 14 Sudoeste 29 Sur 0 -- -- 59
2020-09-17 20:00:00 21.9 15 Sur 48 Sudeste 0.4 -- -- 64
2020-09-17 19:00:00 26.4 26 Sudeste 42 Sudeste 0 -- -- 40
2020-09-17 18:00:00 26.5 24 Sudeste 36 Sudeste 0 -- -- 39
2020-09-17 17:00:00 27.4 15 Sudeste 24 Sudeste 0 -- -- 38
2020-09-17 16:00:00 26.6 12 Este 23 Este 0 -- -- 41
2020-09-17 15:00:00 26.2 12 Sudeste 22 Sudeste 0 -- -- 44
2020-09-17 14:00:00 25.4 10 Sur 20 Este 0 -- -- 48
2020-09-17 13:00:00 24.6 13 Sudeste 36 Sudeste 0 -- -- 50
2020-09-17 12:00:00 22.8 23 Sudeste 33 Sudeste 0 -- -- 58
2020-09-17 11:00:00 19.7 21 Este 28 Sudeste 0 -- -- 70
2020-09-17 10:00:00 17.9 17 Este 29 Este 0 -- -- 81
2020-09-17 09:00:00 17.2 18 Este 27 Este 0 -- -- 82
2020-09-17 08:00:00 17.1 17 Este 27 Nordeste 0.2 -- -- 82
2020-09-17 07:00:00 17.1 15 Este 23 Nordeste 0.2 -- -- 82
2020-09-17 06:00:00 17.3 16 Nordeste 22 Nordeste 0 -- -- 81
2020-09-17 05:00:00 17.7 9 Este 25 Nordeste 0.2 -- -- 76
2020-09-17 04:00:00 18.9 13 Nordeste 32 Este 0 -- -- 67
2020-09-17 03:00:00 21.4 25 Sudeste 35 Sudeste 0 -- -- 51
2020-09-17 02:00:00 20.5 11 Este 35 Este 0 -- -- 54
2020-09-17 01:00:00 21.3 24 Este 35 Este 0 -- -- 57
2020-09-17 00:00:00 21.3 13 Este 21 Nordeste 0 -- -- 51
2020-09-16 23:00:00 21.3 12 Nordeste 16 Nordeste 0 -- -- 49
2020-09-16 22:00:00 22 12 Norte 15 Norte 0 -- -- 46
2020-09-16 21:00:00 22.7 12 Norte 15 Norte 0 -- -- 41
2020-09-16 20:00:00 25.5 8 Norte 10 Nordeste 0 -- -- 35
2020-09-16 19:00:00 27.6 9 Este 19 Este 0 -- -- 31
2020-09-16 18:00:00 28.3 9 Este 21 Este 0 -- -- 33
2020-09-16 17:00:00 28.5 10 Este 24 Nordeste 0 -- -- 34
2020-09-16 16:00:00 28.7 11 Este 33 Norte 0 -- -- 33
2020-09-16 15:00:00 27.8 4 Norte 18 Este 0 -- -- 36
2020-09-16 14:00:00 27.1 6 Sudeste 15 Nordeste 0 -- -- 38
2020-09-16 13:00:00 25.3 6 Nordeste 13 Nordeste 0 -- -- 43
2020-09-16 12:00:00 22 5 Norte 12 Noroeste 0 -- -- 50
2020-09-16 11:00:00 18.5 8 Norte 14 Noroeste 0 -- -- 63
2020-09-16 10:00:00 14.5 10 Noroeste 15 Noroeste 0 -- -- 77
2020-09-16 09:00:00 10.4 8 Noroeste 10 Noroeste 0 -- -- 88
2020-09-16 08:00:00 9.1 7 Noroeste 11 Noroeste 0 -- -- 87
2020-09-16 07:00:00 9.9 5 Norte 9 Noroeste 0 -- -- 86
2020-09-16 06:00:00 10.4 5 Noroeste 9 Noroeste 0 -- -- 81
2020-09-16 05:00:00 11.4 6 Noroeste 9 Noroeste 0 -- -- 81
2020-09-16 04:00:00 12 6 Oeste 9 Oeste 0 -- -- 77
2020-09-16 03:00:00 12.6 2 Oeste 9 Norte 0 -- -- 67
2020-09-16 02:00:00 13.4 5 Noroeste 8 Oeste 0 -- -- 64
2020-09-16 01:00:00 14.4 0 Calma 6 Sudeste 0 -- -- 61
2020-09-16 00:00:00 15 3 Sudoeste 5 Noroeste 0 -- -- 61
2020-09-15 23:00:00 16.2 4 Sur 6 Sur 0 -- -- 56
2020-09-15 22:00:00 18.2 4 Sur 9 Sudoeste 0 -- -- 48
2020-09-15 21:00:00 22.5 9 Sudoeste 17 Sudoeste 0 -- -- 41
2020-09-15 20:00:00 25.9 12 Sudoeste 22 Sudoeste 0 -- -- 34
2020-09-15 19:00:00 27 14 Sudoeste 28 Sudoeste 0 -- -- 33
2020-09-15 18:00:00 26.7 4 Sur 27 Sudoeste 0 -- -- 38
2020-09-15 17:00:00 27.3 12 Sudeste 50 Sudoeste 0 -- -- 36
2020-09-15 16:00:00 26.5 5 Sur 27 Sudeste 0 -- -- 40
2020-09-15 15:00:00 25.7 7 Sur 24 Sudeste 0 -- -- 48
2020-09-15 14:00:00 25.8 13 Sudeste 27 Sudeste 0 -- -- 47
2020-09-15 13:00:00 24.1 11 Sudeste 18 Sur 0 -- -- 60
2020-09-15 12:00:00 22.2 6 Sur 13 Sur 0 -- -- 63
2020-09-15 11:00:00 19 3 Sur 7 Oeste 0 -- -- 73
2020-09-15 10:00:00 16.4 3 Noroeste 9 Oeste 0 -- -- 85
2020-09-15 09:00:00 13.7 3 Noroeste 8 Oeste 0 -- -- 90
2020-09-15 08:00:00 13.8 4 Oeste 8 Oeste 0 -- -- 89
2020-09-15 07:00:00 14.5 3 Norte 9 Oeste 0 -- -- 85
2020-09-15 06:00:00 15.1 0 Calma 6 Este 0 -- -- 86
2020-09-15 05:00:00 15.6 3 Sudoeste 12 Sudoeste 0 -- -- 80
2020-09-15 04:00:00 16.6 6 Sur 14 Sur 0 -- -- 79
2020-09-15 03:00:00 17.9 9 Sur 23 Sudeste 0 -- -- 76
2020-09-15 02:00:00 18.6 15 Sudeste 26 Sudeste 0 -- -- 79
2020-09-15 01:00:00 18.4 6 Este 25 Sudeste 0 -- -- 80
2020-09-15 00:00:00 19.3 23 Sudeste 37 Sudeste 0 -- -- 74
2020-09-14 23:00:00 20.4 12 Nordeste 18 Nordeste 0 -- -- 65
2020-09-14 22:00:00 21.7 11 Este 25 Este 0 -- -- 59
2020-09-14 21:00:00 24.5 4 Sur 20 Sudoeste 0 -- -- 43
2020-09-14 20:00:00 27.7 15 Sudoeste 32 Sudoeste 0 -- -- 37
2020-09-14 19:00:00 28 19 Sudoeste 32 Sur 0 -- -- 36
2020-09-14 18:00:00 27.7 18 Sudeste 35 Sudeste 0 -- -- 40
2020-09-14 17:00:00 29.3 13 Sur 29 Sudeste 0 -- -- 35
2020-09-14 16:00:00 29 14 Sudeste 27 Sur 0 -- -- 36
2020-09-14 15:00:00 28.5 13 Sudeste 24 Sur 0 -- -- 37
2020-09-14 14:00:00 26.4 8 Sudeste 15 Sur 0 -- -- 44
2020-09-14 13:00:00 23 3 Sur 11 Sur 0 -- -- 50
2020-09-14 12:00:00 21.1 3 Sudoeste 7 Sudoeste 0 -- -- 52
2020-09-14 11:00:00 20.2 4 Oeste 11 Oeste 0 -- -- 53
2020-09-14 10:00:00 18.8 5 Oeste 9 Noroeste 0 -- -- 56
2020-09-14 09:00:00 15.9 5 Oeste 9 Oeste 0 -- -- 68
2020-09-14 08:00:00 15 4 Sudoeste 9 Sudoeste 0 -- -- 65
2020-09-14 07:00:00 15.5 4 Este 8 Este 0 -- -- 59
2020-09-14 06:00:00 16.4 5 Nordeste 13 Sudoeste 0 -- -- 61
2020-09-14 05:00:00 19.4 13 Sudoeste 26 Sur 0 -- -- 47
2020-09-14 04:00:00 17.7 6 Este 9 Sudeste 0 -- -- 51
2020-09-14 03:00:00 17.6 6 Nordeste 9 Nordeste 0 -- -- 50
2020-09-14 02:00:00 17.3 3 Nordeste 5 Sudeste 0 -- -- 50
2020-09-14 01:00:00 17.9 0 Calma 10 Sur 0 -- -- 48
2020-09-14 00:00:00 19.1 9 Sudeste 15 Sudeste 0 -- -- 44
2020-09-13 23:00:00 21.4 5 Sudoeste 8 Sur 0 -- -- 40
2020-09-13 22:00:00 24.1 3 Sudoeste 17 Sudoeste 0 -- -- 34
2020-09-13 21:00:00 26.7 6 Este 12 Este 0 -- -- 30
2020-09-13 20:00:00 30.1 7 Nordeste 15 Este 0 -- -- 26
2020-09-13 19:00:00 31.9 6 Sudeste 20 Sudeste 0 -- -- 25
2020-09-13 18:00:00 33.2 8 Sudeste 18 Sudoeste 0 -- -- 23
2020-09-13 17:00:00 33.4 7 Noroeste 15 Sudeste 0 -- -- 23
2020-09-13 16:00:00 31.8 4 Noroeste 10 Sur 0 -- -- 24
2020-09-13 15:00:00 30.9 4 Sudeste 12 Sudoeste 0 -- -- 26
2020-09-13 14:00:00 29.5 6 Sudoeste 13 Norte 0 -- -- 27
2020-09-13 13:00:00 27.2 5 Noroeste 13 Norte 0 -- -- 31
2020-09-13 12:00:00 25 5 Nordeste 13 Noroeste 0 -- -- 34
2020-09-13 11:00:00 22 7 Norte 18 Nordeste 0 -- -- 38
2020-09-13 10:00:00 17.9 12 Norte 17 Norte 0 -- -- 49
2020-09-13 09:00:00 13.7 12 Norte 21 Noroeste 0 -- -- 65
2020-09-13 08:00:00 11.4 14 Norte 18 Norte 0 -- -- 72
2020-09-13 07:00:00 11.9 12 Norte 15 Norte 0 -- -- 69
2020-09-13 06:00:00 12.9 13 Norte 22 Norte 0 -- -- 67
2020-09-13 05:00:00 12.8 12 Noroeste 15 Noroeste 0 -- -- 67
2020-09-13 04:00:00 14.2 12 Noroeste 17 Oeste 0 -- -- 57
2020-09-13 03:00:00 16.4 8 Norte 13 Norte 0 -- -- 46
2020-09-13 02:00:00 17.1 9 Nordeste 17 Nordeste 0 -- -- 42
2020-09-13 01:00:00 17.4 13 Nordeste 22 Este 0 -- -- 40
2020-09-13 00:00:00 17.7 13 Nordeste 16 Nordeste 0 -- -- 37
2020-09-12 23:00:00 19.1 9 Nordeste 15 Nordeste 0 -- -- 34
2020-09-12 22:00:00 20.2 12 Norte 17 Norte 0 -- -- 36
2020-09-12 21:00:00 22.8 9 Norte 13 Nordeste 0 -- -- 32
2020-09-12 20:00:00 28.3 8 Nordeste 17 Este 0 -- -- 25
2020-09-12 19:00:00 31.1 11 Este 23 Nordeste 0 -- -- 23
2020-09-12 18:00:00 31.7 12 Nordeste 23 Nordeste 0 -- -- 22
2020-09-12 17:00:00 31.8 9 Sudeste 27 Este 0 -- -- 22
2020-09-12 16:00:00 31.3 12 Nordeste 21 Este 0 -- -- 24
2020-09-12 15:00:00 29.8 9 Este 21 Nordeste 0 -- -- 25
2020-09-12 14:00:00 28.8 11 Nordeste 24 Este 0 -- -- 28
2020-09-12 13:00:00 27.9 12 Este 32 Este 0 -- -- 33
2020-09-12 12:00:00 25 15 Nordeste 22 Este 0 -- -- 41
2020-09-12 11:00:00 21.7 13 Nordeste 24 Nordeste 0 -- -- 53
2020-09-12 10:00:00 18.8 13 Nordeste 18 Nordeste 0 -- -- 64
2020-09-12 09:00:00 14.1 11 Noroeste 16 Noroeste 0 -- -- 80
2020-09-12 08:00:00 12.4 12 Norte 17 Norte 0 -- -- 84
2020-09-12 07:00:00 13.2 13 Norte 20 Norte 0 -- -- 82
2020-09-12 06:00:00 13.1 11 Norte 19 Norte 0 -- -- 81
2020-09-12 05:00:00 13.7 13 Norte 17 Noroeste 0 -- -- 79
2020-09-12 04:00:00 13.3 10 Noroeste 15 Noroeste 0 -- -- 70
2020-09-12 03:00:00 14.9 7 Noroeste 9 Noroeste 0 -- -- 59
2020-09-12 02:00:00 16.3 4 Nordeste 9 Norte 0 -- -- 49
2020-09-12 01:00:00 17.6 7 Nordeste 14 Nordeste 0 -- -- 43
2020-09-12 00:00:00 17.6 4 Este 9 Norte 0 -- -- 48
2020-09-11 23:00:00 18.2 4 Nordeste 8 Este 0 -- -- 47
2020-09-11 22:00:00 20 6 Nordeste 11 Norte 0 -- -- 42
2020-09-11 21:00:00 23.2 3 Norte 5 Noroeste 0 -- -- 35
2020-09-11 20:00:00 28.2 2 Norte 11 Noroeste 0 -- -- 28
2020-09-11 19:00:00 30.1 11 Noroeste 19 Oeste 0 -- -- 25
2020-09-11 18:00:00 30.5 13 Noroeste 19 Norte 0 -- -- 26
2020-09-11 17:00:00 30.6 10 Noroeste 18 Norte 0 -- -- 26
2020-09-11 16:00:00 29.8 6 Oeste 18 Nordeste 0 -- -- 28
2020-09-11 15:00:00 29.1 9 Nordeste 15 Este 0 -- -- 30
2020-09-11 14:00:00 27.7 7 Nordeste 19 Nordeste 0 -- -- 32
2020-09-11 13:00:00 26.3 7 Nordeste 22 Nordeste 0 -- -- 35
2020-09-11 12:00:00 23.8 14 Nordeste 22 Norte 0 -- -- 45
2020-09-11 11:00:00 21.2 13 Norte 22 Norte 0 -- -- 53
2020-09-11 10:00:00 17.6 15 Norte 22 Norte 0 -- -- 65
2020-09-11 09:00:00 13.8 14 Norte 18 Norte 0 -- -- 80
2020-09-11 08:00:00 11.9 12 Norte 17 Noroeste 0 -- -- 83
2020-09-11 07:00:00 12.8 14 Norte 23 Norte 0 -- -- 80
2020-09-11 06:00:00 12.8 11 Norte 17 Norte 0 -- -- 77
2020-09-11 05:00:00 13.7 10 Noroeste 17 Noroeste 0 -- -- 74
2020-09-11 04:00:00 15.3 7 Norte 14 Nordeste 0 -- -- 65
2020-09-11 03:00:00 16.4 11 Nordeste 17 Nordeste 0 -- -- 62
2020-09-11 02:00:00 18.1 12 Nordeste 24 Nordeste 0 -- -- 58
2020-09-11 01:00:00 18.7 16 Nordeste 23 Nordeste 0 -- -- 55
2020-09-11 00:00:00 16.6 9 Nordeste 13 Norte 0 -- -- 47
2020-09-10 23:00:00 17.6 3 Norte 16 Este 0 -- -- 43
2020-09-10 22:00:00 20 6 Nordeste 10 Norte 0 -- -- 37
2020-09-10 21:00:00 23.2 6 Nordeste 8 Norte 0 -- -- 32
2020-09-10 20:00:00 28.2 6 Noroeste 15 Norte 0 -- -- 26
2020-09-10 19:00:00 29.5 6 Nordeste 16 Este 0 -- -- 27
2020-09-10 18:00:00 29.6 7 Oeste 21 Nordeste 0 -- -- 27
2020-09-10 17:00:00 29.8 4 Este 21 Norte 0 -- -- 27
2020-09-10 16:00:00 29 7 Nordeste 17 Norte 0 -- -- 29
2020-09-10 15:00:00 27.9 8 Norte 17 Nordeste 0 -- -- 32
2020-09-10 14:00:00 26.3 6 Norte 17 Nordeste 0 -- -- 36
2020-09-10 13:00:00 25 4 Este 17 Norte 0 -- -- 39
2020-09-10 12:00:00 23.3 7 Nordeste 16 Nordeste 0 -- -- 44
2020-09-10 11:00:00 21.1 10 Nordeste 22 Norte 0 -- -- 49
2020-09-10 10:00:00 17.3 10 Norte 19 Norte 0 -- -- 63
2020-09-10 09:00:00 13.1 12 Norte 26 Noroeste 0 -- -- 77
2020-09-10 08:00:00 11.1 16 Noroeste 21 Norte 0 -- -- 81
2020-09-10 07:00:00 11.3 12 Noroeste 16 Noroeste 0 -- -- 80
2020-09-10 06:00:00 12.1 14 Norte 19 Noroeste 0 -- -- 79
2020-09-10 05:00:00 12.5 10 Noroeste 15 Noroeste 0 -- -- 78
2020-09-10 04:00:00 14.7 10 Norte 18 Noroeste 0 -- -- 68
2020-09-10 03:00:00 15.9 11 Norte 15 Nordeste 0 -- -- 65
2020-09-10 02:00:00 15.9 8 Nordeste 18 Nordeste 0 -- -- 62
2020-09-10 01:00:00 18.4 15 Nordeste 23 Nordeste 0 -- -- 57
2020-09-10 00:00:00 18.8 15 Nordeste 23 Nordeste 0 -- -- 53
2020-09-09 23:00:00 16.8 7 Nordeste 15 Este 0 -- -- 42
2020-09-09 22:00:00 18.6 6 Norte 9 Norte 0 -- -- 39
2020-09-09 21:00:00 22.3 7 Noroeste 15 Oeste 0 -- -- 32
2020-09-09 20:00:00 28.2 6 Noroeste 11 Norte 0 -- -- 25
2020-09-09 19:00:00 28.9 9 Norte 18 Nordeste 0 -- -- 24
2020-09-09 18:00:00 29.1 6 Sudoeste 34 Sudeste 0 -- -- 24
2020-09-09 17:00:00 29.4 9 Noroeste 20 Oeste 0 -- -- 24
2020-09-09 16:00:00 28.7 7 Oeste 17 Oeste 0 -- -- 24
2020-09-09 15:00:00 27.5 8 Noroeste 16 Este 0 -- -- 26
2020-09-09 14:00:00 26.7 7 Nordeste 16 Nordeste 0 -- -- 29
2020-09-09 13:00:00 24.7 5 Norte 11 Norte 0 -- -- 32
2020-09-09 12:00:00 22.4 5 Norte 14 Nordeste 0 -- -- 36
2020-09-09 11:00:00 19.8 8 Nordeste 20 Nordeste 0 -- -- 43
2020-09-09 10:00:00 15.6 11 Norte 20 Norte 0 -- -- 59
2020-09-09 09:00:00 11.1 11 Norte 15 Norte 0 -- -- 76
2020-09-09 08:00:00 8.6 10 Norte 21 Norte 0 -- -- 82
2020-09-09 07:00:00 9.1 10 Norte 16 Norte 0 -- -- 79
2020-09-09 06:00:00 9.2 13 Noroeste 17 Noroeste 0 -- -- 79
2020-09-09 05:00:00 10.4 12 Noroeste 17 Noroeste 0 -- -- 76
2020-09-09 04:00:00 11.6 13 Noroeste 21 Noroeste 0 -- -- 70
2020-09-09 03:00:00 12.8 12 Noroeste 19 Nordeste 0 -- -- 62
2020-09-09 02:00:00 15.4 16 Nordeste 31 Este 0 -- -- 54
2020-09-09 01:00:00 16 13 Nordeste 20 Nordeste 0 -- -- 48
2020-09-09 00:00:00 15.2 13 Nordeste 18 Nordeste 0 -- -- 46
2020-09-08 23:00:00 14.5 5 Nordeste 12 Norte 0 -- -- 46
2020-09-08 22:00:00 16.5 11 Norte 18 Norte 0 -- -- 41
2020-09-08 21:00:00 20.9 12 Norte 14 Norte 0 -- -- 32
2020-09-08 20:00:00 25.6 11 Nordeste 19 Nordeste 0 -- -- 25
2020-09-08 19:00:00 26.7 14 Nordeste 23 Nordeste 0 -- -- 24
2020-09-08 18:00:00 27.2 9 Nordeste 30 Este 0 -- -- 24
2020-09-08 17:00:00 26.7 14 Este 28 Este 0 -- -- 26
2020-09-08 16:00:00 26.3 15 Este 33 Este 0 -- -- 27
2020-09-08 15:00:00 25 21 Nordeste 45 Este 0 -- -- 30
2020-09-08 14:00:00 23.6 20 Nordeste 36 Nordeste 0 -- -- 34
2020-09-08 13:00:00 21.8 20 Este 36 Este 0 -- -- 38
2020-09-08 12:00:00 19.4 21 Nordeste 38 Nordeste 0 -- -- 44
2020-09-08 11:00:00 16.7 22 Nordeste 44 Nordeste 0 -- -- 57
2020-09-08 10:00:00 14.4 22 Nordeste 35 Nordeste 0 -- -- 66
2020-09-08 09:00:00 10.7 15 Norte 20 Norte 0 -- -- 77
2020-09-08 08:00:00 8.7 12 Norte 19 Norte 0 -- -- 82
2020-09-08 07:00:00 8.7 14 Norte 20 Nordeste 0 -- -- 80
2020-09-08 06:00:00 10 15 Nordeste 20 Norte 0 -- -- 77
2020-09-08 05:00:00 10.6 13 Norte 34 Nordeste 0 -- -- 74
2020-09-08 04:00:00 11.1 24 Nordeste 35 Nordeste 0 -- -- 70
2020-09-08 03:00:00 11.6 24 Nordeste 45 Nordeste 0 -- -- 66
2020-09-08 02:00:00 12 20 Este 45 Nordeste 0 -- -- 67
2020-09-08 01:00:00 13.2 24 Nordeste 36 Nordeste 0 -- -- 59
2020-09-08 00:00:00 14.1 22 Nordeste 42 Nordeste 0 -- -- 59
2020-09-07 23:00:00 15.6 25 Nordeste 37 Nordeste 0 -- -- 57
2020-09-07 22:00:00 17 23 Nordeste 36 Nordeste 0 -- -- 51
2020-09-07 21:00:00 18.5 22 Nordeste 32 Nordeste 0 -- -- 45
2020-09-07 20:00:00 21.3 22 Nordeste 39 Este 0 -- -- 39
2020-09-07 19:00:00 22.8 24 Nordeste 41 Nordeste 0 -- -- 36
2020-09-07 18:00:00 23.7 26 Nordeste 44 Este 0 -- -- 34
2020-09-07 17:00:00 23.9 24 Nordeste 43 Nordeste 0 -- -- 33
2020-09-07 16:00:00 23.5 26 Nordeste 42 Nordeste 0 -- -- 34
2020-09-07 15:00:00 23.1 27 Nordeste 53 Nordeste 0 -- -- 34
2020-09-07 14:00:00 21.8 26 Nordeste 45 Este 0 -- -- 39
2020-09-07 13:00:00 20.8 28 Nordeste 62 Nordeste 0 -- -- 44
2020-09-07 12:00:00 19.5 29 Nordeste 42 Nordeste 0 -- -- 46
2020-09-07 11:00:00 17.2 24 Nordeste 36 Nordeste 0 -- -- 53
2020-09-07 10:00:00 14.5 17 Nordeste 24 Este 0 -- -- 67
2020-09-07 09:00:00 10.2 5 Norte 6 Norte 0 -- -- 86
2020-09-07 08:00:00 8.6 3 Norte 7 Norte 0 -- -- 86
2020-09-07 07:00:00 8.3 4 Norte 9 Norte 0 -- -- 85
2020-09-07 06:00:00 8.6 8 Norte 10 Norte 0 -- -- 82
2020-09-07 05:00:00 9.4 5 Norte 9 Nordeste 0 -- -- 79
2020-09-07 04:00:00 10.9 4 Norte 17 Nordeste 0 -- -- 72
2020-09-07 03:00:00 12.6 15 Nordeste 25 Nordeste 0 -- -- 71
2020-09-07 02:00:00 13.4 18 Nordeste 34 Nordeste 0 -- -- 69
2020-09-07 01:00:00 14.1 25 Nordeste 41 Nordeste 0 -- -- 65
2020-09-07 00:00:00 14.8 27 Nordeste 44 Nordeste 0 -- -- 62
2020-09-06 23:00:00 15.7 30 Nordeste 57 Nordeste 0 -- -- 58
2020-09-06 22:00:00 16.8 34 Nordeste 60 Nordeste 0 -- -- 53
2020-09-06 21:00:00 19.7 31 Nordeste 46 Nordeste 0 -- -- 47
2020-09-06 20:00:00 24.5 22 Este 35 Nordeste 0 -- -- 37
2020-09-06 19:00:00 27 19 Este 29 Este 0 -- -- 36
2020-09-06 18:00:00 27.7 17 Este 32 Nordeste 0 -- -- 36
2020-09-06 17:00:00 27.8 16 Nordeste 30 Nordeste 0 -- -- 36
2020-09-06 16:00:00 27.4 17 Nordeste 33 Este 0 -- -- 37
2020-09-06 15:00:00 26.4 18 Nordeste 37 Nordeste 0 -- -- 39
2020-09-06 14:00:00 25.5 19 Nordeste 48 Nordeste 0 -- -- 42
2020-09-06 13:00:00 23.9 17 Nordeste 35 Nordeste 0 -- -- 45
2020-09-06 12:00:00 21.9 22 Nordeste 37 Nordeste 0 -- -- 50
2020-09-06 11:00:00 19.7 21 Nordeste 39 Nordeste 0 -- -- 58
2020-09-06 10:00:00 17.3 24 Nordeste 34 Nordeste 0 -- -- 69
2020-09-06 09:00:00 15.2 16 Nordeste 24 Nordeste 0 -- -- 78
2020-09-06 08:00:00 13 12 Norte 18 Norte 0 -- -- 83
2020-09-06 07:00:00 13.9 12 Norte 21 Nordeste 0 -- -- 80
2020-09-06 06:00:00 14.7 17 Nordeste 30 Nordeste 0 -- -- 78
2020-09-06 05:00:00 15.1 19 Nordeste 32 Nordeste 0 -- -- 76
2020-09-06 04:00:00 15.6 23 Nordeste 35 Nordeste 0 -- -- 75
2020-09-06 03:00:00 15.8 18 Nordeste 32 Nordeste 0 -- -- 77
2020-09-06 02:00:00 16 15 Nordeste 28 Nordeste 0 -- -- 76
2020-09-06 01:00:00 16.6 18 Nordeste 35 Nordeste 0 -- -- 73
2020-09-06 00:00:00 17.2 29 Nordeste 51 Este 0 -- -- 70
2020-09-05 23:00:00 18.3 35 Nordeste 63 Nordeste 0 -- -- 65
2020-09-05 22:00:00 20.3 34 Nordeste 46 Nordeste 0 -- -- 59
2020-09-05 21:00:00 23.5 33 Nordeste 49 Nordeste 0 -- -- 52
2020-09-05 20:00:00 28.5 30 Este 45 Nordeste 0 -- -- 37
2020-09-05 19:00:00 31.3 18 Nordeste 33 Nordeste 0 -- -- 30
2020-09-05 18:00:00 32.3 15 Nordeste 25 Nordeste 0 -- -- 27
2020-09-05 17:00:00 32.4 12 Norte 26 Norte 0 -- -- 26
2020-09-05 16:00:00 32.6 14 Norte 28 Nordeste 0 -- -- 27
2020-09-05 15:00:00 31 12 Norte 28 Norte 0 -- -- 32
2020-09-05 14:00:00 29.6 16 Nordeste 30 Este 0 -- -- 35
2020-09-05 13:00:00 27.8 15 Nordeste 28 Nordeste 0 -- -- 39
2020-09-05 12:00:00 25.8 17 Nordeste 28 Nordeste 0 -- -- 45
2020-09-05 11:00:00 23.4 18 Nordeste 29 Nordeste 0 -- -- 47
2020-09-05 10:00:00 20.5 16 Nordeste 24 Nordeste 0 -- -- 53
2020-09-05 09:00:00 15.6 8 Norte 15 Noroeste 0 -- -- 71
2020-09-05 08:00:00 14 13 Noroeste 28 Noroeste 0 -- -- 76
2020-09-05 07:00:00 14.9 18 Noroeste 25 Norte 0 -- -- 74
2020-09-05 06:00:00 15.2 15 Noroeste 21 Norte 0 -- -- 73
2020-09-05 05:00:00 15.5 12 Noroeste 18 Noroeste 0 -- -- 72
2020-09-05 04:00:00 16.1 10 Noroeste 18 Norte 0 -- -- 67
2020-09-05 03:00:00 16.8 15 Norte 21 Norte 0 -- -- 64
2020-09-05 02:00:00 18.5 13 Noroeste 26 Nordeste 0 -- -- 56
2020-09-05 01:00:00 17.9 11 Noroeste 17 Noroeste 0 -- -- 51
2020-09-05 00:00:00 18.3 0 Calma 12 Nordeste 0 -- -- 44
2020-09-04 23:00:00 19.8 8 Nordeste 10 Nordeste 0 -- -- 38
2020-09-04 22:00:00 21.8 9 Oeste 14 Noroeste 0 -- -- 37
2020-09-04 21:00:00 25.7 13 Noroeste 19 Noroeste 0 -- -- 29
2020-09-04 20:00:00 31.4 15 Noroeste 24 Noroeste 0 -- -- 22
2020-09-04 19:00:00 33.1 9 Oeste 20 Este 0 -- -- 19
2020-09-04 18:00:00 33.3 7 Sudeste 20 Sur 0 -- -- 20
2020-09-04 17:00:00 33.2 10 Sur 28 Sur 0 -- -- 20
2020-09-04 16:00:00 32.4 9 Oeste 18 Oeste 0 -- -- 21
2020-09-04 15:00:00 31.6 7 Sudoeste 19 Sur 0 -- -- 22
2020-09-04 14:00:00 29.6 5 Nordeste 15 Norte 0 -- -- 23
2020-09-04 13:00:00 27.6 5 Nordeste 13 Noroeste 0 -- -- 30
2020-09-04 12:00:00 24.5 4 Norte 10 Noroeste 0 -- -- 35
2020-09-04 11:00:00 21.4 4 Norte 13 Norte 0 -- -- 42
2020-09-04 10:00:00 18 11 Norte 18 Norte 0 -- -- 56
2020-09-04 09:00:00 13.4 10 Norte 17 Norte 0 -- -- 77
2020-09-04 08:00:00 11.2 9 Norte 22 Norte 0 -- -- 81
2020-09-04 07:00:00 10.8 13 Noroeste 17 Norte 0 -- -- 82
2020-09-04 06:00:00 11.7 13 Noroeste 22 Noroeste 0 -- -- 82
2020-09-04 05:00:00 12.3 13 Noroeste 17 Noroeste 0 -- -- 80
2020-09-04 04:00:00 12.8 11 Noroeste 14 Noroeste 0 -- -- 76
2020-09-04 03:00:00 13.5 10 Norte 21 Noroeste 0 -- -- 72
2020-09-04 02:00:00 13.6 10 Noroeste 13 Norte 0 -- -- 66
2020-09-04 01:00:00 14.4 6 Noroeste 8 Noroeste 0 -- -- 56
2020-09-04 00:00:00 15.5 0 Calma 6 Sur 0 -- -- 51
2020-09-03 23:00:00 17.9 0 Calma 7 Norte 0 -- -- 43
2020-09-03 22:00:00 20.8 3 Este 11 Norte 0 -- -- 39
2020-09-03 21:00:00 26 5 Norte 7 Norte 0 -- -- 28
2020-09-03 20:00:00 30.1 4 Este 10 Este 0 -- -- 22
2020-09-03 19:00:00 30.7 3 Sudoeste 15 Sudeste 0 -- -- 22
2020-09-03 18:00:00 30.9 6 Este 17 Nordeste 0 -- -- 23
2020-09-03 17:00:00 30.4 6 Sudoeste 16 Oeste 0 -- -- 25
2020-09-03 16:00:00 29.6 5 Oeste 15 Oeste 0 -- -- 26
2020-09-03 15:00:00 28.6 9 Este 15 Este 0 -- -- 28
2020-09-03 14:00:00 27 7 Sudoeste 15 Este 0 -- -- 31
2020-09-03 13:00:00 25.6 5 Nordeste 14 Norte 0 -- -- 34
2020-09-03 12:00:00 23.3 6 Este 14 Nordeste 0 -- -- 42
2020-09-03 11:00:00 20.4 9 Nordeste 14 Norte 0 -- -- 54
2020-09-03 10:00:00 16 9 Norte 16 Noroeste 0 -- -- 71
2020-09-03 09:00:00 12.4 12 Noroeste 19 Noroeste 0 -- -- 83
2020-09-03 08:00:00 9.7 12 Noroeste 19 Noroeste 0 -- -- 88
2020-09-03 07:00:00 10 10 Noroeste 13 Noroeste 0 -- -- 87
2020-09-03 06:00:00 11.2 13 Noroeste 19 Norte 0 -- -- 86
2020-09-03 05:00:00 11.1 9 Noroeste 11 Noroeste 0 -- -- 84
2020-09-03 04:00:00 11.6 8 Noroeste 14 Noroeste 0 -- -- 78
2020-09-03 03:00:00 13.6 9 Noroeste 14 Este 0 -- -- 68
2020-09-03 02:00:00 15.2 8 Nordeste 19 Este 0 -- -- 63
2020-09-03 01:00:00 15.6 14 Nordeste 19 Este 0 -- -- 60
2020-09-03 00:00:00 15 4 Norte 9 Este 0 -- -- 55
2020-09-02 23:00:00 16.4 4 Norte 9 Norte 0 -- -- 50
2020-09-02 22:00:00 18.2 10 Norte 12 Norte 0 -- -- 46
2020-09-02 21:00:00 22.6 8 Norte 15 Norte 0 -- -- 37
2020-09-02 20:00:00 26.6 10 Noroeste 21 Norte 0 -- -- 30
2020-09-02 19:00:00 27.5 4 Norte 17 Nordeste 0 -- -- 29
2020-09-02 18:00:00 27.9 8 Noroeste 14 Nordeste 0 -- -- 28
2020-09-02 17:00:00 27.4 9 Norte 21 Norte 0 -- -- 29
2020-09-02 16:00:00 27 6 Norte 23 Norte 0 -- -- 31
2020-09-02 15:00:00 25.9 7 Este 22 Nordeste 0 -- -- 33
2020-09-02 14:00:00 25.1 11 Este 26 Nordeste 0 -- -- 35
2020-09-02 13:00:00 23.6 17 Nordeste 26 Nordeste 0 -- -- 40
2020-09-02 12:00:00 21.7 18 Nordeste 30 Nordeste 0 -- -- 43
2020-09-02 11:00:00 18.9 20 Nordeste 36 Nordeste 0 -- -- 56
2020-09-02 10:00:00 16.3 22 Nordeste 32 Nordeste 0 -- -- 65
2020-09-02 09:00:00 12.8 14 Norte 20 Norte 0 -- -- 79
2020-09-02 08:00:00 10 9 Norte 16 Norte 0 -- -- 87
2020-09-02 07:00:00 10.3 10 Norte 21 Norte 0 -- -- 86
2020-09-02 06:00:00 10.7 13 Norte 23 Norte 0 -- -- 83
2020-09-02 05:00:00 11.1 15 Norte 19 Norte 0 -- -- 82
2020-09-02 04:00:00 11.4 12 Norte 16 Nordeste -- -- -- 79
2020-09-02 03:00:00 13.3 13 Norte 21 Nordeste 0 -- -- 72
2020-09-02 02:00:00 14.3 17 Nordeste 23 Nordeste 0 -- -- 68
2020-09-02 01:00:00 15.2 13 Norte 35 Nordeste 0 -- -- 66
2020-09-02 00:00:00 17 29 Nordeste 48 Nordeste 0 -- -- 59
2020-09-01 23:00:00 18.8 32 Nordeste 59 Nordeste 0 -- -- 53
2020-09-01 22:00:00 18 13 Norte 15 Norte 0 -- -- 39
2020-09-01 21:00:00 22 7 Noroeste 13 Norte 0 -- -- 32
2020-09-01 20:00:00 26.2 7 Noroeste 22 Norte 0 -- -- 27
2020-09-01 19:00:00 27.5 10 Norte 27 Norte 0 -- -- 26
2020-09-01 18:00:00 27.6 5 Norte 23 Norte 0 -- -- 25
2020-09-01 17:00:00 26.6 6 Oeste 19 Este 0 -- -- 26
2020-09-01 16:00:00 27.6 10 Norte 20 Este 0 -- -- 23
2020-09-01 15:00:00 26.5 7 Nordeste 17 Este 0 -- -- 22
2020-09-01 14:00:00 25.3 6 Sur 14 Oeste 0 -- -- 27
2020-09-01 13:00:00 23.8 6 Noroeste 15 Noroeste 0 -- -- 29
2020-09-01 12:00:00 21.5 4 Noroeste 13 Nordeste 0 -- -- 36
2020-09-01 11:00:00 19.7 5 Nordeste 14 Norte 0 -- -- 43
2020-09-01 10:00:00 15.5 4 Nordeste 12 Noroeste 0 -- -- 59
2020-09-01 09:00:00 13.4 8 Noroeste 15 Noroeste 0 -- -- 70
2020-09-01 08:00:00 12 7 Norte 11 Norte 0 -- -- 70
2020-09-01 07:00:00 12.6 9 Noroeste 12 Este 0 -- -- 69
2020-09-01 06:00:00 13.6 5 Nordeste 14 Norte 0 -- -- 67
2020-09-01 05:00:00 13.6 3 Noroeste 6 Oeste 0 -- -- 65
2020-09-01 04:00:00 14.4 5 Nordeste 9 Norte 0 -- -- 61
2020-09-01 03:00:00 14.3 8 Noroeste 12 Noroeste 0 -- -- 58
2020-09-01 02:00:00 13.8 7 Noroeste 11 Oeste 0 -- -- 50
2020-09-01 01:00:00 14 2 Norte 7 Este 0 -- -- 44
2020-09-01 00:00:00 14.5 4 Este 9 Nordeste 0 -- -- 41
2020-08-31 23:00:00 15.3 9 Nordeste 14 Nordeste 0 -- -- 40
2020-08-31 22:00:00 17.3 9 Nordeste 11 Nordeste 0 -- -- 35
2020-08-31 21:00:00 20.6 9 Nordeste 14 Nordeste 0 -- -- 30
2020-08-31 20:00:00 22.9 3 Norte 12 Sudoeste 0 -- -- 27
2020-08-31 19:00:00 24.3 4 Sudeste 18 Nordeste 0 -- -- 26
2020-08-31 18:00:00 24.3 8 Sudoeste 16 Sudoeste 0 -- -- 25
2020-08-31 17:00:00 23.4 8 Sudoeste 28 Noroeste 0 -- -- 26
2020-08-31 16:00:00 22.9 5 Sur 18 Sudeste 0 -- -- 28
2020-08-31 15:00:00 22.1 5 Sudeste 18 Sur 0 -- -- 31
2020-08-31 14:00:00 21 6 Sur 14 Noroeste 0 -- -- 33
2020-08-31 13:00:00 19 3 Sudeste 13 Noroeste 0 -- -- 42
2020-08-31 12:00:00 16.9 6 Norte 12 Norte 0 -- -- 50
2020-08-31 11:00:00 14.6 7 Nordeste 17 Nordeste 0 -- -- 58
2020-08-31 10:00:00 12.4 11 Nordeste 18 Nordeste 0 -- -- 68
2020-08-31 09:00:00 8.6 14 Norte 17 Norte 0 -- -- 84
2020-08-31 08:00:00 6.7 11 Norte 18 Norte 0 -- -- 89
2020-08-31 07:00:00 5.9 10 Noroeste 20 Norte 0 -- -- 89
2020-08-31 06:00:00 6.5 11 Norte 18 Norte 0 -- -- 86
2020-08-31 05:00:00 7.2 9 Noroeste 15 Norte 0 -- -- 81
2020-08-31 04:00:00 8.2 11 Noroeste 15 Noroeste 0 -- -- 80
2020-08-31 03:00:00 9.7 10 Nordeste 18 Nordeste 0 -- -- 73
2020-08-31 02:00:00 10.6 13 Nordeste 26 Este 0 -- -- 70
2020-08-31 01:00:00 11.6 19 Nordeste 29 Nordeste 0 -- -- 66
2020-08-31 00:00:00 12.8 19 Nordeste 33 Nordeste 0 -- -- 61
2020-08-30 23:00:00 14.1 19 Nordeste 34 Nordeste 0 -- -- 54
2020-08-30 22:00:00 13.7 4 Norte 6 Nordeste 0 -- -- 44
2020-08-30 21:00:00 18.1 5 Nordeste 13 Norte 0 -- -- 35
2020-08-30 20:00:00 20.7 0 Calma 17 Noroeste 0 -- -- 29
2020-08-30 19:00:00 21.2 9 Norte 16 Nordeste 0 -- -- 30
2020-08-30 18:00:00 20.9 13 Nordeste 23 Este 0 -- -- 32
2020-08-30 17:00:00 19.8 11 Norte 25 Nordeste 0 -- -- 34
2020-08-30 16:00:00 19.8 11 Nordeste 26 Nordeste 0 -- -- 36
2020-08-30 15:00:00 19.1 8 Noroeste 22 Este 0 -- -- 40
2020-08-30 14:00:00 19 8 Este 24 Nordeste 0 -- -- 41
2020-08-30 13:00:00 17.6 10 Norte 23 Norte 0 -- -- 46
2020-08-30 12:00:00 16.8 15 Norte 31 Nordeste 0 -- -- 47
2020-08-30 11:00:00 15.6 17 Norte 25 Norte 0 -- -- 55
2020-08-30 10:00:00 12.3 8 Norte 12 Noroeste 0 -- -- 66
2020-08-30 09:00:00 8.8 4 Norte 8 Noroeste 0 -- -- 81
2020-08-30 08:00:00 5.2 0 Calma 9 Noroeste 0 -- -- 86
2020-08-30 07:00:00 5.4 4 Norte 10 Sudeste 0 -- -- 86
2020-08-30 06:00:00 6.1 4 Noroeste 8 Noroeste 0 -- -- 85
2020-08-30 05:00:00 6.3 0 Calma 8 Noroeste 0 -- -- 84
2020-08-30 04:00:00 6.9 5 Este 12 Noroeste 0 -- -- 82
2020-08-30 03:00:00 7.5 8 Norte 17 Norte 0 -- -- 81
2020-08-30 02:00:00 8.1 4 Noroeste 11 Noroeste 0 -- -- 79
2020-08-30 01:00:00 9.4 9 Noroeste 14 Norte 0 -- -- 72
2020-08-30 00:00:00 11.4 13 Norte 21 Norte 0 -- -- 65
2020-08-29 23:00:00 12.6 15 Norte 28 Norte 0 -- -- 61
2020-08-29 22:00:00 14.1 23 Norte 32 Norte 0 -- -- 55
2020-08-29 21:00:00 16 23 Norte 42 Norte 0 -- -- 50
2020-08-29 20:00:00 18.7 30 Noroeste 46 Norte 0 -- -- 44
2020-08-29 19:00:00 20.2 33 Norte 44 Norte 0 -- -- 38
2020-08-29 18:00:00 21.5 27 Norte 48 Noroeste 0 -- -- 38
2020-08-29 17:00:00 21.9 25 Norte 45 Noroeste 0 -- -- 36
2020-08-29 16:00:00 21.6 29 Norte 47 Norte 0 -- -- 35
2020-08-29 15:00:00 20.9 28 Noroeste 46 Norte 0 -- -- 38
2020-08-29 14:00:00 20.1 27 Norte 42 Norte 0 -- -- 40
2020-08-29 13:00:00 19 24 Noroeste 41 Noroeste 0 -- -- 43
2020-08-29 12:00:00 18.1 22 Noroeste 34 Noroeste 0 -- -- 44
2020-08-29 11:00:00 17 16 Noroeste 28 Noroeste 0 -- -- 52
2020-08-29 10:00:00 14.3 14 Noroeste 23 Noroeste 0 -- -- 61
2020-08-29 09:00:00 10.9 5 Oeste 9 Sudoeste 0 -- -- 73
2020-08-29 08:00:00 7.6 3 Sudoeste 12 Noroeste 0 -- -- 83
2020-08-29 07:00:00 7.8 10 Noroeste 15 Noroeste 0 -- -- 82
2020-08-29 06:00:00 8.9 9 Noroeste 20 Noroeste 0 -- -- 77
2020-08-29 05:00:00 9 12 Noroeste 19 Norte 0 -- -- 79
2020-08-29 04:00:00 9.1 0 Calma 9 Noroeste 0 -- -- 75
2020-08-29 03:00:00 9.6 5 Noroeste 10 Noroeste 0 -- -- 74
2020-08-29 02:00:00 11.2 6 Nordeste 19 Noroeste 0 -- -- 67
2020-08-29 01:00:00 13 16 Noroeste 30 Noroeste 0 -- -- 64
2020-08-29 00:00:00 14.1 23 Noroeste 44 Noroeste 0 -- -- 58
2020-08-28 23:00:00 15.8 34 Noroeste 48 Noroeste 0 -- -- 51
2020-08-28 22:00:00 17.1 28 Noroeste 41 Noroeste 0 -- -- 47
2020-08-28 21:00:00 18.5 25 Noroeste 44 Noroeste 0 -- -- 41
2020-08-28 20:00:00 20.6 31 Noroeste 47 Noroeste 0 -- -- 36
2020-08-28 19:00:00 22.7 35 Noroeste 46 Noroeste 0 -- -- 33
2020-08-28 18:00:00 24.8 30 Noroeste 48 Noroeste 0 -- -- 31
2020-08-28 17:00:00 26.1 26 Noroeste 41 Noroeste 0 -- -- 30
2020-08-28 16:00:00 27 18 Norte 33 Norte 0 -- -- 30
2020-08-28 15:00:00 26 15 Norte 31 Norte 0 -- -- 36
2020-08-28 14:00:00 24.7 7 Oeste 18 Oeste 0 -- -- 42
2020-08-28 13:00:00 23.5 9 Noroeste 21 Oeste 0 -- -- 48
2020-08-28 12:00:00 22.2 10 Oeste 23 Oeste 0 -- -- 53
2020-08-28 11:00:00 21.2 14 Noroeste 26 Noroeste 0 -- -- 52
2020-08-28 10:00:00 19.6 14 Noroeste 19 Noroeste 0 -- -- 60
2020-08-28 09:00:00 17.1 3 Oeste 8 Oeste 0 -- -- 78
2020-08-28 08:00:00 15.7 4 Noroeste 10 Oeste 0 -- -- 80
2020-08-28 07:00:00 17.4 6 Sudoeste 15 Oeste 0 -- -- 77
2020-08-28 06:00:00 18 9 Sudoeste 14 Sudoeste 0 -- -- 76
2020-08-28 05:00:00 18.2 10 Sudoeste 13 Sudoeste 0 -- -- 76
2020-08-28 04:00:00 19 4 Oeste 10 Noroeste 0 -- -- 72
2020-08-28 03:00:00 19.5 9 Noroeste 13 Noroeste 0 -- -- 71
2020-08-28 02:00:00 20 10 Noroeste 29 Noroeste 0 -- -- 69
2020-08-28 01:00:00 20.9 18 Noroeste 23 Noroeste 0 -- -- 67
2020-08-28 00:00:00 22.8 14 Noroeste 26 Noroeste 0 -- -- 60
2020-08-27 23:00:00 23.9 17 Noroeste 26 Noroeste 0 -- -- 58
2020-08-27 22:00:00 25 15 Noroeste 31 Norte 0 -- -- 53
2020-08-27 21:00:00 27.3 24 Norte 36 Noroeste 0 -- -- 44
2020-08-27 20:00:00 31 26 Norte 33 Norte 0 -- -- 36
2020-08-27 19:00:00 33.5 17 Oeste 28 Oeste 0 -- -- 22
2020-08-27 18:00:00 34.3 16 Oeste 37 Noroeste 0 -- -- 22
2020-08-27 17:00:00 33.8 18 Oeste 30 Oeste 0 -- -- 23
2020-08-27 16:00:00 32.7 10 Sudoeste 21 Sudoeste 0 -- -- 33
2020-08-27 15:00:00 31.3 8 Sur 18 Sudeste 0 -- -- 38
2020-08-27 14:00:00 29.3 6 Sudoeste 19 Sudoeste 0 -- -- 43
2020-08-27 13:00:00 28.1 5 Norte 25 Norte 0 -- -- 47
2020-08-27 12:00:00 26.2 6 Norte 21 Norte 0 -- -- 53
2020-08-27 11:00:00 24.8 13 Norte 22 Norte 0 -- -- 61
2020-08-27 10:00:00 21.5 13 Norte 21 Noroeste 0 -- -- 70
2020-08-27 09:00:00 18.1 6 Noroeste 12 Norte 0 -- -- 85
2020-08-27 08:00:00 15.3 2 Sudoeste 9 Noroeste 0 -- -- 87
2020-08-27 07:00:00 15.9 4 Norte 9 Noroeste 0 -- -- 85
2020-08-27 06:00:00 16.1 6 Noroeste 9 Noroeste 0 -- -- 83
2020-08-27 05:00:00 16.9 4 Noroeste 10 Norte 0 -- -- 78
2020-08-27 04:00:00 18 6 Norte 14 Norte 0 -- -- 76
2020-08-27 03:00:00 18.5 9 Nordeste 18 Nordeste 0 -- -- 75
2020-08-27 02:00:00 19.4 11 Noroeste 16 Noroeste 0 -- -- 73
2020-08-27 01:00:00 20.2 8 Norte 13 Noroeste 0 -- -- 68
2020-08-27 00:00:00 21.7 9 Noroeste 18 Noroeste 0 -- -- 61
2020-08-26 23:00:00 23.3 11 Oeste 18 Noroeste 0 -- -- 55
2020-08-26 22:00:00 24.8 7 Noroeste 12 Oeste 0 -- -- 47
2020-08-26 21:00:00 30.1 6 Oeste 14 Oeste 0 -- -- 34
2020-08-26 20:00:00 33.2 6 Oeste 28 Sudoeste 0 -- -- 26
2020-08-26 19:00:00 33.9 10 Sudoeste 23 Oeste 0 -- -- 23
2020-08-26 18:00:00 33.6 6 Sudeste 23 Sudoeste 0 -- -- 27
2020-08-26 17:00:00 33.2 5 Oeste 23 Sudoeste 0 -- -- 27
2020-08-26 16:00:00 32.3 8 Sur 21 Sudoeste 0 -- -- 30
2020-08-26 15:00:00 31.2 8 Sur 17 Sur 0 -- -- 32
2020-08-26 14:00:00 29.5 6 Sudeste 14 Noroeste 0 -- -- 36
2020-08-26 13:00:00 27.4 5 Norte 17 Nordeste 0 -- -- 45
2020-08-26 12:00:00 25.1 7 Noroeste 16 Nordeste 0 -- -- 52
2020-08-26 11:00:00 23 9 Norte 21 Norte 0 -- -- 58
2020-08-26 10:00:00 19.9 12 Norte 18 Noroeste 0 -- -- 69
2020-08-26 09:00:00 16.7 11 Noroeste 17 Norte 0 -- -- 82
2020-08-26 08:00:00 14 9 Norte 14 Norte 0 -- -- 88
2020-08-26 07:00:00 14.4 8 Norte 14 Noroeste 0 -- -- 85
2020-08-26 06:00:00 14.2 10 Noroeste 13 Noroeste 0 -- -- 84
2020-08-26 05:00:00 16 6 Nordeste 13 Nordeste 0 -- -- 75
2020-08-26 04:00:00 16.7 8 Nordeste 11 Nordeste 0 -- -- 72
2020-08-26 03:00:00 18.1 10 Nordeste 18 Nordeste 0 -- -- 68
2020-08-26 02:00:00 19 13 Nordeste 22 Nordeste 0 -- -- 63
2020-08-26 01:00:00 19.5 14 Norte 21 Nordeste 0 -- -- 62
2020-08-26 00:00:00 21.1 9 Noroeste 14 Noroeste 0 -- -- 55